x

West Sea Otter (46204) Wave Buoy

11:00 - Fri 1st Jul 2016 All times are PDT. -7 hours from GMT.

  • Sig Wave height 7.2ft
  • Peak Period 8s
  • Wind
    16mph, 18mph gusts
  • Sea Temp 56°f
  • Air Temp 55°f
  • Sea Pressure 1014.7mb
  • West Sea Otter
  • West Sea Otter

More Historic Weather Station data

Upgrade to MSW Pro to gain access to the past 30 days of data for over 8000 Wavebouys and Weather Stations around the globe.

Join Pro

Comparision Forecast

View Surf forecast
   
ven. 07/01 11:00 7ft 8s 16 18 mph 1014.7mb 56f 55f
10:00 7.5ft 8s 16 20 mph 1014.1mb 56f 55f
9:00 8ft 8s 18 22 mph 1013.9mb 55f 55f
8:00 8ft 8s 20 22 mph 1013.5mb 55f 55f
7:00 7.5ft 7s 20 25 mph 1013.5mb 55f 55f
6:00 7.5ft 7s 20 22 mph 1013.5mb 55f 55f
5:00 8ft 7s 22 27 mph 1013.4mb 55f 55f
4:00 8ft 7s 25 29 mph 1013.3mb 55f 55f
3:00 8ft 7s 25 31 mph 1013.4mb 56f 55f
2:00 7.5ft 7s 27 36 mph 1013.4mb 56f 56f
1:00 7ft 7s 27 34 mph 1013.7mb 56f 56f
12:00 6.5ft 6s 27 31 mph 1014.3mb 55f 55f
jeu. 06/30 11:00 6ft 5s 27 34 mph 1014.9mb 55f 55f
10:00 5.5ft 5s 25 31 mph 1015.3mb 57f 56f
9:00 4.5ft 4s 27 34 mph 1016mb 56f 56f
8:00 3.5ft 4s 25 27 mph 1017.6mb 57f 56f
7:00 3ft 18s 18 22 mph 1018.9mb 58f 56f
6:00 2.5ft 5s 16 20 mph 1019.9mb 58f 57f
5:00 2.5ft 6s 16 18 mph 1020.9mb 58f 57f
3:00 2.5ft 17s 9 13 mph 1022.7mb 58f 57f
2:00 2.5ft 6s 9
mph
1023.1mb 57f 56f
1:00 2.5ft 6s 9
mph
1023.3mb 57f 57f
12:00 3ft 6s 7
mph
1023.4mb 57f 56f
11:00 3.5ft 7s 7 9 mph 1023.7mb 57f 56f
10:00 3.5ft 7s 4 7 mph 1023.6mb 57f 56f
9:00 3.5ft 6s 9
mph
1023.6mb 57f 56f
8:00 4ft 6s 11 13 mph 1023.5mb 57f 56f
7:00 3.5ft 6s 7 9 mph 1023.7mb 57f 55f
6:00 3.5ft 6s 11 13 mph 1023.6mb 57f 55f
5:00 3ft 6s 13 16 mph 1023.4mb 57f 55f
4:00 2.5ft 7s 11 13 mph 1023.5mb 57f 56f
3:00 2ft 15s 11 16 mph 1023.4mb 57f 56f
2:00 2ft 15s 11 13 mph 1023.2mb 57f 56f
1:00 1.6ft 14s 13 16 mph 1023mb 57f 55f
12:00 2ft 14s 7 9 mph 1022.9mb 57f 57f
mer. 06/29 11:00 2ft 14s 4
mph
1023.1mb 57f 57f
10:00 2ft 14s 4
mph
1023mb 57f 56f
9:00 2ft 14s 7 9 mph 1023mb 57f 56f
8:00 2ft 14s 11 13 mph 1023.1mb 57f 56f
7:00 2ft 15s 7 9 mph 1023.2mb 57f 57f
6:00 2ft 14s 9
mph
1023.4mb 57f 57f
5:00 2ft 14s 9 11 mph 1023.4mb 57f 57f
4:00 2.5ft 15s 9 11 mph 1023.5mb 57f 57f
3:00 2.5ft 16s 9 11 mph 1023.7mb 57f 57f
2:00 2.5ft 15s 9 11 mph 1023.5mb 57f 57f
1:00 2ft 15s 11 13 mph 1023.6mb 57f 57f
12:00 2.5ft 15s 9 11 mph 1023.2mb 57f 56f
11:00 2.5ft 8s 9 11 mph 1023.1mb 57f 56f
10:00 2.5ft 15s 9 11 mph 1023.1mb 57f 56f
9:00 2.5ft 14s 9 11 mph 1023.1mb 57f 56f
8:00 3ft 15s 7 9 mph 1022.9mb 57f 56f
7:00 3ft 5s 7 9 mph 1023mb 57f 56f
6:00 3ft 15s 7 9 mph 1023mb 57f 56f
5:00 3ft 5s 7 9 mph 1023.2mb 57f 56f
4:00 3ft 16s 9 11 mph 1023.2mb 57f 56f
3:00 3ft 14s 11 13 mph 1023.5mb 56f 56f
2:00 3ft 15s 13 16 mph 1023.6mb 57f 56f
1:00 3ft 15s 13 16 mph 1023.6mb 57f 56f
12:00 2.5ft 15s 13 18 mph 1023.8mb 57f 56f
mar. 06/28 11:00 2.5ft 15s 11 13 mph 1023.7mb 57f 57f
10:00 3ft 15s 13 16 mph 1023.9mb 57f 57f
9:00 3ft 8s 11 13 mph 1023.8mb 57f 57f
8:00 3ft 16s 11 13 mph 1023.9mb 57f 58f
7:00 3ft 14s 9 11 mph 1024.1mb 57f 57f
6:00 3ft 16s 11 13 mph 1024.2mb 57f 58f
5:00 3ft 14s 11 13 mph 1024.6mb 57f 57f
4:00 3.5ft 8s 11 13 mph 1025.1mb 57f 57f
3:00 3.5ft 16s 11 13 mph 1025.2mb 57f 57f
2:00 3.5ft 16s 11 13 mph 1025.4mb 57f 57f
1:00 3.5ft 17s 11 13 mph 1025.4mb 57f 57f
12:00 3.5ft 16s 11 13 mph 1025.4mb 57f 57f
11:00 3.5ft 16s 13 16 mph 1025mb 56f 57f
10:00 3.5ft 16s 13
mph
1024.9mb 56f 57f
9:00 3.5ft 16s 13 16 mph 1024.6mb 56f 57f
8:00 3.5ft 14s 13 18 mph 1024.5mb 56f 57f
7:00 3.5ft 5s 11 13 mph 1024.3mb 56f 57f
6:00 3.5ft 15s 11 13 mph 1024.2mb 56f 56f
5:00 3.5ft 17s 11 13 mph 1024.1mb 56f 56f
4:00 4ft 16s 9
mph
1024.1mb 56f 56f
3:00 4ft 9s 7 9 mph 1024.3mb 56f 56f
2:00 4ft 17s 9
mph
1024.4mb 56f 56f
1:00 4ft 16s 11 13 mph 1024.4mb 56f 56f
12:00 4ft 17s 11 13 mph 1024.5mb 56f 56f
lun. 06/27 11:00 4ft 17s 13 18 mph 1024.6mb 56f 56f
10:00 4.5ft 10s 16 18 mph 1024.4mb 56f 56f
9:00 4ft 10s 16 18 mph 1024.2mb 56f 56f
8:00 4.5ft 16s 13 16 mph 1024.3mb 56f 57f